createdAt,value
2022-12-07T00:00:34.197Z,982.54
2022-12-07T00:01:34.176Z,982.54
2022-12-07T00:02:34.252Z,982.53
2022-12-07T00:03:34.248Z,982.53
2022-12-07T00:04:34.152Z,982.48
2022-12-07T00:05:34.160Z,982.51
2022-12-07T00:06:34.110Z,982.56
2022-12-07T00:07:34.132Z,982.53
2022-12-07T00:08:34.078Z,982.51
2022-12-07T00:09:34.086Z,982.52
2022-12-07T00:10:34.047Z,982.49
2022-12-07T00:11:34.057Z,982.51
2022-12-07T00:12:34.027Z,982.46
2022-12-07T00:13:34.037Z,982.48
2022-12-07T00:14:34.008Z,982.48
2022-12-07T00:15:34.136Z,982.50
2022-12-07T00:16:34.024Z,982.52
2022-12-07T00:17:34.035Z,982.48
2022-12-07T00:18:33.956Z,982.47
2022-12-07T00:19:33.978Z,982.53
2022-12-07T00:20:33.941Z,982.55
2022-12-07T00:21:33.983Z,982.54
2022-12-07T00:22:33.921Z,982.52
2022-12-07T00:23:33.946Z,982.54
2022-12-07T00:24:33.891Z,982.51
2022-12-07T00:25:33.906Z,982.52
2022-12-07T00:26:33.872Z,982.56
2022-12-07T00:27:33.896Z,982.56
2022-12-07T00:28:33.877Z,982.53
2022-12-07T00:29:33.870Z,982.49
2022-12-07T00:30:33.823Z,982.48
2022-12-07T00:31:33.961Z,982.42
2022-12-07T00:32:33.809Z,982.42
2022-12-07T00:33:33.815Z,982.45
2022-12-07T00:34:33.788Z,982.43
2022-12-07T00:35:33.873Z,982.46
2022-12-07T00:36:33.761Z,982.45
2022-12-07T00:37:33.778Z,982.44
2022-12-07T00:38:33.733Z,982.42
2022-12-07T00:39:33.734Z,982.39
2022-12-07T00:40:33.723Z,982.40
2022-12-07T00:41:33.717Z,982.38
2022-12-07T00:42:33.732Z,982.38
2022-12-07T00:43:33.703Z,982.28
2022-12-07T00:44:33.672Z,982.32
2022-12-07T00:45:33.716Z,982.33
2022-12-07T00:46:33.697Z,982.33
2022-12-07T00:47:33.653Z,982.30
2022-12-07T00:48:33.633Z,982.28
2022-12-07T00:49:33.622Z,982.26
2022-12-07T00:50:33.627Z,982.26
2022-12-07T00:51:33.594Z,982.30
2022-12-07T00:52:33.580Z,982.27
2022-12-07T00:53:38.107Z,982.30
2022-12-07T00:54:34.560Z,982.22
2022-12-07T00:55:33.608Z,982.20
2022-12-07T00:56:33.612Z,982.21
2022-12-07T00:57:33.541Z,982.25
2022-12-07T00:58:33.513Z,982.24
2022-12-07T00:59:33.517Z,982.16
2022-12-07T01:00:33.519Z,982.19
2022-12-07T01:01:33.558Z,982.20
2022-12-07T01:02:33.455Z,982.18
2022-12-07T01:03:33.543Z,982.14
2022-12-07T01:04:33.441Z,982.14
2022-12-07T01:05:33.613Z,982.09
2022-12-07T01:06:33.400Z,982.13
2022-12-07T01:07:33.442Z,982.11
2022-12-07T01:08:33.432Z,982.14
2022-12-07T01:09:33.407Z,982.14
2022-12-07T01:10:33.380Z,982.11
2022-12-07T01:11:33.382Z,982.15
2022-12-07T01:12:33.363Z,982.15
2022-12-07T01:13:33.349Z,982.13
2022-12-07T01:14:33.332Z,982.13
2022-12-07T01:15:33.321Z,982.10
2022-12-07T01:16:33.568Z,982.11
2022-12-07T01:17:33.290Z,982.06
2022-12-07T01:18:33.290Z,982.10
2022-12-07T01:19:33.267Z,982.06
2022-12-07T01:20:33.295Z,982.00
2022-12-07T01:21:33.251Z,982.03
2022-12-07T01:22:33.253Z,982.01
2022-12-07T01:23:33.224Z,982.03
2022-12-07T01:24:33.243Z,982.05
2022-12-07T01:25:33.199Z,982.04
2022-12-07T01:26:33.200Z,982.04
2022-12-07T01:27:33.202Z,982.08
2022-12-07T01:28:33.207Z,982.02
2022-12-07T01:29:33.138Z,982.13
2022-12-07T01:30:33.196Z,982.04
2022-12-07T01:31:33.149Z,982.04
2022-12-07T01:32:33.142Z,982.04
2022-12-07T01:33:33.109Z,982.09
2022-12-07T01:34:33.122Z,982.10
2022-12-07T01:35:33.100Z,982.10
2022-12-07T01:36:33.110Z,982.08
2022-12-07T01:37:33.080Z,982.08
2022-12-07T01:38:33.068Z,982.11
2022-12-07T01:39:33.047Z,982.17
2022-12-07T01:40:33.054Z,982.15
2022-12-07T01:41:33.042Z,982.22
2022-12-07T01:42:33.029Z,982.25
2022-12-07T01:43:32.992Z,982.17
2022-12-07T01:44:33.042Z,982.13
2022-12-07T01:45:32.979Z,982.20
2022-12-07T01:46:33.040Z,982.14
2022-12-07T01:47:32.947Z,982.17
2022-12-07T01:48:32.984Z,982.17
2022-12-07T01:49:32.921Z,982.13
2022-12-07T01:50:32.979Z,982.16
2022-12-07T01:51:32.910Z,982.14
2022-12-07T01:52:32.940Z,982.20
2022-12-07T01:53:32.892Z,982.16
2022-12-07T01:54:32.917Z,982.15
2022-12-07T01:55:32.860Z,982.06
2022-12-07T01:56:33.206Z,982.08
2022-12-07T01:57:33.327Z,982.08
2022-12-07T01:58:32.849Z,982.09
2022-12-07T01:59:32.811Z,982.08
2022-12-07T02:00:32.828Z,982.06
2022-12-07T02:01:32.840Z,982.07
2022-12-07T02:02:32.885Z,982.04
2022-12-07T02:03:32.773Z,982.00
2022-12-07T02:04:32.796Z,981.96
2022-12-07T02:05:32.746Z,981.98
2022-12-07T02:06:32.783Z,981.95
2022-12-07T02:07:32.736Z,981.94
2022-12-07T02:08:32.757Z,981.95
2022-12-07T02:09:32.716Z,981.93
2022-12-07T02:10:32.719Z,981.90
2022-12-07T02:11:32.682Z,981.93
2022-12-07T02:12:32.696Z,981.92
2022-12-07T02:13:32.677Z,981.91
2022-12-07T02:14:32.685Z,981.91
2022-12-07T02:15:32.689Z,981.93
2022-12-07T02:16:32.659Z,981.89
2022-12-07T02:17:33.134Z,981.89
2022-12-07T02:18:32.748Z,981.91
2022-12-07T02:19:32.595Z,981.91
2022-12-07T02:20:32.604Z,981.92
2022-12-07T02:21:32.590Z,981.91
2022-12-07T02:22:32.582Z,981.88
2022-12-07T02:23:32.563Z,981.88
2022-12-07T02:24:32.592Z,981.86
2022-12-07T02:25:32.527Z,981.83
2022-12-07T02:26:32.545Z,981.80
2022-12-07T02:27:32.493Z,981.85
2022-12-07T02:28:32.537Z,981.87
2022-12-07T02:29:32.508Z,981.83
2022-12-07T02:30:32.527Z,981.86
2022-12-07T02:31:32.568Z,981.84
2022-12-07T02:32:32.454Z,981.85
2022-12-07T02:33:32.425Z,981.89
2022-12-07T02:34:32.451Z,981.84
2022-12-07T02:35:32.400Z,981.82
2022-12-07T02:36:32.412Z,981.84
2022-12-07T02:37:32.401Z,981.85
2022-12-07T02:38:32.477Z,981.84
2022-12-07T02:39:32.363Z,981.83
2022-12-07T02:40:32.591Z,981.84
2022-12-07T02:41:32.333Z,981.83
2022-12-07T02:42:32.352Z,981.85
2022-12-07T02:43:32.333Z,981.84
2022-12-07T02:44:32.347Z,981.87
2022-12-07T02:45:32.414Z,981.82
2022-12-07T02:46:32.395Z,981.86
2022-12-07T02:47:32.275Z,981.82
2022-12-07T02:48:32.288Z,981.87
2022-12-07T02:49:32.275Z,981.86
2022-12-07T02:50:32.280Z,981.86
2022-12-07T02:51:32.262Z,981.86
2022-12-07T02:52:32.238Z,981.84
2022-12-07T02:53:32.207Z,981.85
2022-12-07T02:54:32.241Z,981.83
2022-12-07T02:55:32.285Z,981.79
2022-12-07T02:56:32.199Z,981.74
2022-12-07T02:57:32.160Z,981.77
2022-12-07T02:58:32.718Z,981.75
2022-12-07T02:59:32.220Z,981.74
2022-12-07T03:00:32.183Z,981.71
2022-12-07T03:01:32.155Z,981.71
2022-12-07T03:02:32.193Z,981.74
2022-12-07T03:03:32.164Z,981.72
2022-12-07T03:04:32.145Z,981.68
2022-12-07T03:05:32.078Z,981.68
2022-12-07T03:06:32.261Z,981.70
2022-12-07T03:07:32.041Z,981.68
2022-12-07T03:08:32.056Z,981.67
2022-12-07T03:09:32.518Z,981.64
2022-12-07T03:10:32.591Z,981.65
2022-12-07T03:11:32.636Z,981.66
2022-12-07T03:12:32.028Z,981.62
2022-12-07T03:13:32.001Z,981.67
2022-12-07T03:14:32.000Z,981.63
2022-12-07T03:15:32.040Z,981.59
2022-12-07T03:16:31.959Z,981.62
2022-12-07T03:17:31.933Z,981.59
2022-12-07T03:18:31.950Z,981.61
2022-12-07T03:19:31.940Z,981.59
2022-12-07T03:20:31.947Z,981.62
2022-12-07T03:21:31.888Z,981.59
2022-12-07T03:22:31.900Z,981.60
2022-12-07T03:23:31.893Z,981.57
2022-12-07T03:24:31.869Z,981.58
2022-12-07T03:25:31.844Z,981.57
2022-12-07T03:26:31.856Z,981.58
2022-12-07T03:27:31.826Z,981.62
2022-12-07T03:28:31.848Z,981.62
2022-12-07T03:29:31.806Z,981.61
2022-12-07T03:30:31.797Z,981.64
2022-12-07T03:31:31.850Z,981.61
2022-12-07T03:32:31.820Z,981.57
2022-12-07T03:33:31.755Z,981.61
2022-12-07T03:34:31.773Z,981.57
2022-12-07T03:35:31.755Z,981.59
2022-12-07T03:36:31.745Z,981.57
2022-12-07T03:37:31.729Z,981.62
2022-12-07T03:38:31.773Z,981.59
2022-12-07T03:39:31.865Z,981.62
2022-12-07T03:40:31.779Z,981.59
2022-12-07T03:41:31.663Z,981.60
2022-12-07T03:42:31.674Z,981.58
2022-12-07T03:43:31.812Z,981.58
2022-12-07T03:44:31.655Z,981.60
2022-12-07T03:45:31.657Z,981.57
2022-12-07T03:46:31.683Z,981.59
2022-12-07T03:47:31.593Z,981.59
2022-12-07T03:48:31.598Z,981.60
2022-12-07T03:49:31.582Z,981.66
2022-12-07T03:50:31.876Z,981.61
2022-12-07T03:51:31.565Z,981.57
2022-12-07T03:52:31.576Z,981.60
2022-12-07T03:53:31.536Z,981.56
2022-12-07T03:54:31.535Z,981.58
2022-12-07T03:55:31.495Z,981.56
2022-12-07T03:56:31.594Z,981.55
2022-12-07T03:57:31.477Z,981.52
2022-12-07T03:58:31.503Z,981.52
2022-12-07T03:59:31.694Z,981.55
2022-12-07T04:00:31.840Z,981.54
2022-12-07T04:01:31.884Z,981.52
2022-12-07T04:02:31.516Z,981.54
2022-12-07T04:03:31.426Z,981.50
2022-12-07T04:04:31.451Z,981.50
2022-12-07T04:05:31.393Z,981.52
2022-12-07T04:06:31.394Z,981.59
2022-12-07T04:07:31.376Z,981.58
2022-12-07T04:08:31.383Z,981.58
2022-12-07T04:09:31.334Z,981.60
2022-12-07T04:10:31.346Z,981.57
2022-12-07T04:11:31.313Z,981.61
2022-12-07T04:12:31.393Z,981.62
2022-12-07T04:13:31.301Z,981.62
2022-12-07T04:14:31.321Z,981.69
2022-12-07T04:15:31.270Z,981.67
2022-12-07T04:16:31.325Z,981.68
2022-12-07T04:17:31.270Z,981.71
2022-12-07T04:18:31.273Z,981.72
2022-12-07T04:19:31.431Z,981.68
2022-12-07T04:20:31.254Z,981.72
2022-12-07T04:21:31.741Z,981.68
2022-12-07T04:22:31.224Z,981.65
2022-12-07T04:23:31.193Z,981.62
2022-12-07T04:24:31.214Z,981.60
2022-12-07T04:25:31.159Z,981.58
2022-12-07T04:26:31.178Z,981.60
2022-12-07T04:27:31.141Z,981.63
2022-12-07T04:28:31.490Z,981.60
2022-12-07T04:29:31.161Z,981.57
2022-12-07T04:30:31.128Z,981.64
2022-12-07T04:31:31.189Z,981.59
2022-12-07T04:32:31.112Z,981.59
2022-12-07T04:33:31.070Z,981.58
2022-12-07T04:34:31.234Z,981.61
2022-12-07T04:35:31.048Z,981.58
2022-12-07T04:36:31.091Z,981.57
2022-12-07T04:37:31.032Z,981.57
2022-12-07T04:38:31.032Z,981.57
2022-12-07T04:39:31.169Z,981.61
2022-12-07T04:40:31.169Z,981.52
2022-12-07T04:41:31.572Z,981.55
2022-12-07T04:42:30.996Z,981.52
2022-12-07T04:43:30.961Z,981.52
2022-12-07T04:44:30.998Z,981.56
2022-12-07T04:45:30.959Z,981.57
2022-12-07T04:46:30.996Z,981.58
2022-12-07T04:47:30.902Z,981.56
2022-12-07T04:48:30.918Z,981.53
2022-12-07T04:49:30.891Z,981.57
2022-12-07T04:50:31.041Z,981.52
2022-12-07T04:51:30.877Z,981.53
2022-12-07T04:52:30.888Z,981.54
2022-12-07T04:53:30.845Z,981.53
2022-12-07T04:54:30.864Z,981.51
2022-12-07T04:55:30.819Z,981.53
2022-12-07T04:56:30.859Z,981.53
2022-12-07T04:57:30.788Z,981.52
2022-12-07T04:58:30.797Z,981.50
2022-12-07T04:59:30.780Z,981.54
2022-12-07T05:00:30.820Z,981.50
2022-12-07T05:01:30.909Z,981.48
2022-12-07T05:02:30.810Z,981.47
2022-12-07T05:03:30.720Z,981.49
2022-12-07T05:04:30.838Z,981.50
2022-12-07T05:05:30.723Z,981.48
2022-12-07T05:06:30.738Z,981.49
2022-12-07T05:07:30.766Z,981.48
2022-12-07T05:08:30.700Z,981.52
2022-12-07T05:09:30.657Z,981.56
2022-12-07T05:10:30.674Z,981.54
2022-12-07T05:11:30.651Z,981.51
2022-12-07T05:12:30.645Z,981.56
2022-12-07T05:13:30.607Z,981.57
2022-12-07T05:14:30.628Z,981.54
2022-12-07T05:15:30.589Z,981.52
2022-12-07T05:16:30.729Z,981.51
2022-12-07T05:17:30.585Z,981.56
2022-12-07T05:18:30.583Z,981.52
2022-12-07T05:19:30.550Z,981.48
2022-12-07T05:20:30.562Z,981.55
2022-12-07T05:21:30.956Z,981.53
2022-12-07T05:22:30.546Z,981.56
2022-12-07T05:23:30.538Z,981.57
2022-12-07T05:24:30.517Z,981.57
2022-12-07T05:25:30.477Z,981.60
2022-12-07T05:26:30.486Z,981.58
2022-12-07T05:27:30.478Z,981.56
2022-12-07T05:28:30.467Z,981.58
2022-12-07T05:29:30.437Z,981.61
2022-12-07T05:30:30.459Z,981.60
2022-12-07T05:31:30.509Z,981.62
2022-12-07T05:32:30.406Z,981.62
2022-12-07T05:33:30.415Z,981.57
2022-12-07T05:34:30.383Z,981.62
2022-12-07T05:35:30.404Z,981.57
2022-12-07T05:36:30.354Z,981.59
2022-12-07T05:37:30.382Z,981.60
2022-12-07T05:38:30.396Z,981.55
2022-12-07T05:39:30.415Z,981.55
2022-12-07T05:40:30.563Z,981.56
2022-12-07T05:41:30.585Z,981.57
2022-12-07T05:42:30.295Z,981.57
2022-12-07T05:43:30.303Z,981.58
2022-12-07T05:44:30.266Z,981.60
2022-12-07T05:45:30.350Z,981.60
2022-12-07T05:46:30.254Z,981.65
2022-12-07T05:47:30.246Z,981.65
2022-12-07T05:48:30.225Z,981.63
2022-12-07T05:49:30.246Z,981.65
2022-12-07T05:50:30.192Z,981.63
2022-12-07T05:51:30.212Z,981.66
2022-12-07T05:52:30.164Z,981.63
2022-12-07T05:53:30.190Z,981.65
2022-12-07T05:54:30.143Z,981.63
2022-12-07T05:55:30.192Z,981.62
2022-12-07T05:56:30.132Z,981.59
2022-12-07T05:57:30.143Z,981.56
2022-12-07T05:58:30.124Z,981.60
2022-12-07T05:59:30.133Z,981.57
2022-12-07T06:00:30.073Z,981.60
2022-12-07T06:01:30.112Z,981.59
2022-12-07T06:02:30.306Z,981.59
2022-12-07T06:03:30.124Z,981.56
2022-12-07T06:04:30.043Z,981.58
2022-12-07T06:05:30.088Z,981.60
2022-12-07T06:06:30.090Z,981.60
2022-12-07T06:07:30.165Z,981.60
2022-12-07T06:08:30.054Z,981.59
2022-12-07T06:09:30.054Z,981.64
2022-12-07T06:10:29.971Z,981.62
2022-12-07T06:11:29.972Z,981.63
2022-12-07T06:12:29.945Z,981.54
2022-12-07T06:13:30.001Z,981.55
2022-12-07T06:14:29.911Z,981.56
2022-12-07T06:15:29.960Z,981.57
2022-12-07T06:16:30.056Z,981.60
2022-12-07T06:17:29.909Z,981.56
2022-12-07T06:18:29.876Z,981.57
2022-12-07T06:19:30.034Z,981.57
2022-12-07T06:20:29.857Z,981.62
2022-12-07T06:21:29.883Z,981.62
2022-12-07T06:22:29.921Z,981.60
2022-12-07T06:23:30.059Z,981.61
2022-12-07T06:24:29.799Z,981.60
2022-12-07T06:25:29.827Z,981.63
2022-12-07T06:26:29.789Z,981.65
2022-12-07T06:27:29.790Z,981.69
2022-12-07T06:28:29.771Z,981.66
2022-12-07T06:29:29.779Z,981.68
2022-12-07T06:30:29.758Z,981.67
2022-12-07T06:31:29.807Z,981.77
2022-12-07T06:32:29.729Z,981.74
2022-12-07T06:33:29.722Z,981.76
2022-12-07T06:34:29.688Z,981.79
2022-12-07T06:35:29.726Z,981.78
2022-12-07T06:36:29.670Z,981.74
2022-12-07T06:37:29.687Z,981.79
2022-12-07T06:38:29.639Z,981.76
2022-12-07T06:39:29.663Z,981.74
2022-12-07T06:40:29.609Z,981.78
2022-12-07T06:41:29.656Z,981.70
2022-12-07T06:42:29.622Z,981.75
2022-12-07T06:43:29.621Z,981.79
2022-12-07T06:44:29.582Z,981.76
2022-12-07T06:45:29.677Z,981.75
2022-12-07T06:46:29.632Z,981.76
2022-12-07T06:47:40.679Z,981.77
2022-12-07T06:48:30.526Z,981.77
2022-12-07T06:49:29.597Z,981.83
2022-12-07T06:50:29.556Z,981.79
2022-12-07T06:51:29.537Z,981.82
2022-12-07T06:52:29.495Z,981.82
2022-12-07T06:53:29.507Z,981.85
2022-12-07T06:54:29.505Z,981.81
2022-12-07T06:55:29.474Z,981.84
2022-12-07T06:56:29.439Z,981.82
2022-12-07T06:57:29.475Z,981.79
2022-12-07T06:58:29.428Z,981.76
2022-12-07T06:59:29.439Z,981.78
2022-12-07T07:00:29.460Z,981.80
2022-12-07T07:01:29.526Z,981.82
2022-12-07T07:02:29.441Z,981.81
2022-12-07T07:03:29.503Z,981.80
2022-12-07T07:04:29.360Z,981.80
2022-12-07T07:05:29.386Z,981.81
2022-12-07T07:06:29.336Z,981.79
2022-12-07T07:07:29.357Z,981.85
2022-12-07T07:08:29.394Z,981.79
2022-12-07T07:09:29.370Z,981.79
2022-12-07T07:10:29.412Z,981.79
2022-12-07T07:11:29.304Z,981.77
2022-12-07T07:12:29.265Z,981.78
2022-12-07T07:13:29.334Z,981.83
2022-12-07T07:14:29.244Z,981.81
2022-12-07T07:15:29.264Z,981.84
2022-12-07T07:16:29.261Z,981.80
2022-12-07T07:17:29.245Z,981.80
2022-12-07T07:18:29.213Z,981.84
2022-12-07T07:19:29.223Z,981.84
2022-12-07T07:20:29.194Z,981.81
2022-12-07T07:21:29.185Z,981.80
2022-12-07T07:22:29.153Z,981.83
2022-12-07T07:23:29.182Z,981.82
2022-12-07T07:24:29.859Z,981.87
2022-12-07T07:25:29.251Z,981.85
2022-12-07T07:26:29.105Z,981.87
2022-12-07T07:27:29.124Z,981.86
2022-12-07T07:28:29.152Z,981.85
2022-12-07T07:29:29.110Z,981.89
2022-12-07T07:30:29.146Z,981.88
2022-12-07T07:31:29.107Z,981.89
2022-12-07T07:32:29.034Z,981.84
2022-12-07T07:33:29.043Z,981.86
2022-12-07T07:34:29.024Z,981.88
2022-12-07T07:35:29.111Z,981.83
2022-12-07T07:36:29.005Z,981.84
2022-12-07T07:37:29.031Z,981.84
2022-12-07T07:38:28.982Z,981.94
2022-12-07T07:39:29.027Z,981.92
2022-12-07T07:40:28.953Z,981.87
2022-12-07T07:41:28.970Z,981.92
2022-12-07T07:42:28.950Z,981.92
2022-12-07T07:43:28.942Z,981.89
2022-12-07T07:44:34.474Z,981.85
2022-12-07T07:45:29.921Z,981.88
2022-12-07T07:46:28.964Z,981.89
2022-12-07T07:47:28.902Z,981.90
2022-12-07T07:48:28.891Z,981.88
2022-12-07T07:49:28.912Z,981.86
2022-12-07T07:50:28.860Z,981.89
2022-12-07T07:51:28.852Z,981.89
2022-12-07T07:52:28.862Z,981.88
2022-12-07T07:53:28.824Z,981.90
2022-12-07T07:54:28.828Z,981.87
2022-12-07T07:55:28.799Z,981.88
2022-12-07T07:56:28.771Z,981.90
2022-12-07T07:57:28.800Z,981.91
2022-12-07T07:58:28.752Z,981.92
2022-12-07T07:59:28.750Z,981.92
2022-12-07T08:00:28.999Z,981.93
2022-12-07T08:01:28.748Z,981.94
2022-12-07T08:02:28.701Z,981.94
2022-12-07T08:03:28.734Z,981.96
2022-12-07T08:04:28.784Z,981.97
2022-12-07T08:05:28.729Z,981.95
2022-12-07T08:06:32.174Z,981.95
2022-12-07T08:07:28.674Z,981.98
2022-12-07T08:08:28.657Z,981.95
2022-12-07T08:09:29.605Z,981.95
2022-12-07T08:10:28.619Z,981.98
2022-12-07T08:11:28.647Z,981.96
2022-12-07T08:12:28.600Z,981.92
2022-12-07T08:13:31.323Z,981.96
2022-12-07T08:14:28.550Z,981.95
2022-12-07T08:15:28.712Z,981.92
2022-12-07T08:16:28.684Z,981.95
2022-12-07T08:17:28.548Z,981.96
2022-12-07T08:18:28.576Z,982.00
2022-12-07T08:19:28.561Z,981.99
2022-12-07T08:20:28.499Z,981.99
2022-12-07T08:21:28.510Z,981.96
2022-12-07T08:22:28.499Z,982.00
2022-12-07T08:23:34.950Z,982.00
2022-12-07T08:24:29.451Z,981.98
2022-12-07T08:25:28.648Z,982.02
2022-12-07T08:26:28.538Z,982.00
2022-12-07T08:27:28.451Z,982.02
2022-12-07T08:28:28.409Z,982.01
2022-12-07T08:29:28.414Z,982.02
2022-12-07T08:30:28.377Z,982.08
2022-12-07T08:31:28.473Z,982.03
2022-12-07T08:32:28.438Z,982.09
2022-12-07T08:33:29.008Z,982.05
2022-12-07T08:34:28.334Z,982.07
2022-12-07T08:35:28.356Z,982.09
2022-12-07T08:36:28.336Z,982.07
2022-12-07T08:37:28.327Z,982.12
2022-12-07T08:38:31.744Z,982.12
2022-12-07T08:39:32.586Z,982.12
2022-12-07T08:40:28.286Z,982.14
2022-12-07T08:41:28.296Z,982.15
2022-12-07T08:42:28.254Z,982.15
2022-12-07T08:43:28.267Z,982.14
2022-12-07T08:44:28.229Z,982.10
2022-12-07T08:45:28.255Z,982.14
2022-12-07T08:46:28.301Z,982.16
2022-12-07T08:47:28.330Z,982.13
2022-12-07T08:48:28.194Z,982.10
2022-12-07T08:49:28.224Z,982.11
2022-12-07T08:50:28.163Z,982.13
2022-12-07T08:51:28.175Z,982.13
2022-12-07T08:52:28.624Z,982.11
2022-12-07T08:53:28.163Z,982.19
2022-12-07T08:54:28.127Z,982.08
2022-12-07T08:55:28.131Z,982.11
2022-12-07T08:56:28.263Z,982.10
2022-12-07T08:57:28.117Z,982.11
2022-12-07T08:58:28.244Z,982.16
2022-12-07T08:59:28.107Z,982.07
2022-12-07T09:00:28.115Z,982.11
2022-12-07T09:01:28.184Z,982.09
2022-12-07T09:02:28.054Z,982.11
2022-12-07T09:03:28.085Z,982.09
2022-12-07T09:04:28.013Z,982.06
2022-12-07T09:05:28.061Z,982.09
2022-12-07T09:06:28.603Z,982.06
2022-12-07T09:07:28.514Z,982.11
2022-12-07T09:08:28.058Z,982.09
2022-12-07T09:09:28.263Z,982.09
2022-12-07T09:10:27.934Z,982.07
2022-12-07T09:11:28.965Z,982.07
2022-12-07T09:12:27.921Z,982.12
2022-12-07T09:13:27.946Z,982.15
2022-12-07T09:14:27.893Z,982.10
2022-12-07T09:15:27.926Z,982.13
2022-12-07T09:16:27.909Z,982.09
2022-12-07T09:17:27.921Z,982.09
2022-12-07T09:18:27.863Z,982.10
2022-12-07T09:19:27.901Z,982.16
2022-12-07T09:20:28.532Z,982.17
2022-12-07T09:21:27.840Z,982.16
2022-12-07T09:22:27.813Z,982.19
2022-12-07T09:23:27.823Z,982.21
2022-12-07T09:24:27.783Z,982.22
2022-12-07T09:25:27.820Z,982.18
2022-12-07T09:26:27.790Z,982.23
2022-12-07T09:27:28.364Z,982.20
2022-12-07T09:28:27.734Z,982.27
2022-12-07T09:29:27.755Z,982.29
2022-12-07T09:30:27.723Z,982.26
2022-12-07T09:31:27.831Z,982.23
2022-12-07T09:32:27.735Z,982.27
2022-12-07T09:33:27.701Z,982.25
2022-12-07T09:34:27.726Z,982.25
2022-12-07T09:35:27.688Z,982.26
2022-12-07T09:36:27.670Z,982.25
2022-12-07T09:37:27.669Z,982.22
2022-12-07T09:38:27.628Z,982.18
2022-12-07T09:39:27.641Z,982.16
2022-12-07T09:40:27.636Z,982.13
2022-12-07T09:41:27.642Z,982.17
2022-12-07T09:42:27.636Z,982.19
2022-12-07T09:43:27.622Z,982.16
2022-12-07T09:44:27.569Z,982.19
2022-12-07T09:45:27.588Z,982.15
2022-12-07T09:46:27.601Z,982.19
2022-12-07T09:47:28.268Z,982.13
2022-12-07T09:48:27.535Z,982.14
2022-12-07T09:49:27.517Z,982.14
2022-12-07T09:50:27.544Z,982.14
2022-12-07T09:51:27.487Z,982.13
2022-12-07T09:52:27.500Z,982.08
2022-12-07T09:53:27.476Z,982.08
2022-12-07T09:54:27.492Z,982.09
2022-12-07T09:55:27.447Z,982.08
2022-12-07T09:56:27.458Z,982.08
2022-12-07T09:57:27.487Z,982.07
2022-12-07T09:58:27.462Z,982.05
2022-12-07T09:59:28.620Z,982.02
2022-12-07T10:00:27.433Z,982.05
2022-12-07T10:01:27.472Z,982.07
2022-12-07T10:02:27.417Z,982.00
2022-12-07T10:03:27.398Z,982.07
2022-12-07T10:04:27.424Z,982.06
2022-12-07T10:05:27.403Z,982.08
2022-12-07T10:06:27.389Z,982.08
2022-12-07T10:07:27.596Z,982.05
2022-12-07T10:08:27.596Z,982.04
2022-12-07T10:09:27.410Z,982.05
2022-12-07T10:10:27.348Z,982.03
2022-12-07T10:11:27.273Z,982.04
2022-12-07T10:12:27.315Z,982.03
2022-12-07T10:13:27.248Z,982.04
2022-12-07T10:14:44.278Z,982.07
2022-12-07T10:15:28.205Z,982.05
2022-12-07T10:16:27.293Z,982.01
2022-12-07T10:17:27.184Z,981.99
2022-12-07T10:18:27.244Z,982.00
2022-12-07T10:19:27.675Z,981.98
2022-12-07T10:20:27.609Z,981.98
2022-12-07T10:21:27.146Z,981.97
2022-12-07T10:22:31.705Z,981.94
2022-12-07T10:23:28.127Z,981.92
2022-12-07T10:24:27.142Z,981.90
2022-12-07T10:25:27.148Z,981.96
2022-12-07T10:26:27.136Z,981.95
2022-12-07T10:27:27.089Z,981.90
2022-12-07T10:28:27.554Z,981.90
2022-12-07T10:29:27.053Z,981.89
2022-12-07T10:30:27.101Z,981.85
2022-12-07T10:31:27.128Z,981.85
2022-12-07T10:32:27.058Z,981.86
2022-12-07T10:33:27.024Z,981.83
2022-12-07T10:34:27.025Z,981.83
2022-12-07T10:35:26.985Z,981.83
2022-12-07T10:36:26.991Z,981.83
2022-12-07T10:37:26.976Z,981.78
2022-12-07T10:38:26.984Z,981.79
2022-12-07T10:39:26.952Z,981.79
2022-12-07T10:40:26.942Z,981.75
2022-12-07T10:41:26.932Z,981.76
2022-12-07T10:42:27.035Z,981.75
2022-12-07T10:43:26.892Z,981.71
2022-12-07T10:44:26.912Z,981.74
2022-12-07T10:45:26.902Z,981.70
2022-12-07T10:46:27.005Z,981.68
2022-12-07T10:47:26.902Z,981.71
2022-12-07T10:48:27.044Z,981.69
2022-12-07T10:49:26.854Z,981.69
2022-12-07T10:50:26.857Z,981.73
2022-12-07T10:51:26.800Z,981.69
2022-12-07T10:52:26.892Z,981.66
2022-12-07T10:53:26.803Z,981.64
2022-12-07T10:54:26.811Z,981.68
2022-12-07T10:55:26.791Z,981.68
2022-12-07T10:56:26.779Z,981.64
2022-12-07T10:57:26.732Z,981.64
2022-12-07T10:58:26.751Z,981.61
2022-12-07T10:59:26.723Z,981.58
2022-12-07T11:00:26.730Z,981.54
2022-12-07T11:01:26.746Z,981.51
2022-12-07T11:02:26.757Z,981.54
2022-12-07T11:03:26.663Z,981.53
2022-12-07T11:04:26.680Z,981.55
2022-12-07T11:05:26.657Z,981.51
2022-12-07T11:06:26.664Z,981.50
2022-12-07T11:07:26.636Z,981.48
2022-12-07T11:08:26.684Z,981.48
2022-12-07T11:09:51.882Z,981.42
2022-12-07T11:10:27.620Z,981.42
2022-12-07T11:11:26.559Z,981.42
2022-12-07T11:12:26.579Z,981.42
2022-12-07T11:13:28.614Z,981.35
2022-12-07T11:14:26.571Z,981.38
2022-12-07T11:15:26.555Z,981.37
2022-12-07T11:16:26.601Z,981.34
2022-12-07T11:17:26.512Z,981.33
2022-12-07T11:18:26.534Z,981.36
2022-12-07T11:19:28.377Z,981.38
2022-12-07T11:20:26.522Z,981.32
2022-12-07T11:21:26.460Z,981.26
2022-12-07T11:22:26.470Z,981.26
2022-12-07T11:23:26.444Z,981.26
2022-12-07T11:24:26.443Z,981.33
2022-12-07T11:25:29.072Z,981.31
2022-12-07T11:26:26.449Z,981.33
2022-12-07T11:27:26.410Z,981.28
2022-12-07T11:28:26.398Z,981.25
2022-12-07T11:29:26.361Z,981.23
2022-12-07T11:30:26.638Z,981.27
2022-12-07T11:31:29.466Z,981.24
2022-12-07T11:32:26.365Z,981.31
2022-12-07T11:33:26.321Z,981.25
2022-12-07T11:34:26.343Z,981.24
2022-12-07T11:35:26.290Z,981.26
2022-12-07T11:36:26.310Z,981.27
2022-12-07T11:37:26.280Z,981.26
2022-12-07T11:38:28.351Z,981.20
2022-12-07T11:39:26.261Z,981.19
2022-12-07T11:40:26.359Z,981.28
2022-12-07T11:41:26.346Z,981.27
2022-12-07T11:42:26.255Z,981.24
2022-12-07T11:43:26.207Z,981.20
2022-12-07T11:44:27.596Z,981.23
2022-12-07T11:45:26.186Z,981.18
2022-12-07T11:46:26.262Z,981.17
2022-12-07T11:47:26.174Z,981.15
2022-12-07T11:48:26.257Z,981.14
2022-12-07T11:49:26.166Z,981.16
2022-12-07T11:50:26.270Z,981.13
2022-12-07T11:51:31.906Z,981.13
2022-12-07T11:52:27.129Z,981.13
2022-12-07T11:53:26.127Z,981.21
2022-12-07T11:54:26.151Z,981.13
2022-12-07T11:55:26.070Z,981.17
2022-12-07T11:56:26.113Z,981.11
2022-12-07T11:57:26.069Z,981.09
2022-12-07T11:58:26.086Z,981.11
2022-12-07T11:59:26.044Z,981.06
2022-12-07T12:00:26.035Z,981.03
2022-12-07T12:01:26.007Z,981.02
2022-12-07T12:02:26.124Z,980.99
2022-12-07T12:03:26.074Z,981.01
2022-12-07T12:04:26.017Z,981.01
2022-12-07T12:05:25.954Z,981.01
2022-12-07T12:06:26.018Z,980.97
2022-12-07T12:09:42.201Z,980.94
2022-12-07T12:10:27.016Z,981.02
2022-12-07T12:11:25.909Z,981.01
2022-12-07T12:14:34.839Z,980.97
2022-12-07T12:15:26.859Z,980.99
2022-12-07T12:16:25.935Z,981.01
2022-12-07T12:17:25.848Z,981.01
2022-12-07T12:18:25.834Z,980.99
2022-12-07T12:19:25.884Z,981.01
2022-12-07T12:20:25.845Z,981.01
2022-12-07T12:21:25.807Z,980.94
2022-12-07T12:22:25.804Z,980.95
2022-12-07T12:23:25.766Z,980.96
2022-12-07T12:24:25.779Z,980.96
2022-12-07T12:25:25.752Z,980.93
2022-12-07T12:26:25.896Z,980.90
2022-12-07T12:27:25.841Z,980.92
2022-12-07T12:28:25.730Z,980.89
2022-12-07T12:29:25.696Z,980.87
2022-12-07T12:30:25.723Z,980.92
2022-12-07T12:31:25.716Z,980.93
2022-12-07T12:32:25.764Z,980.87